Metar Aeropuerto Ibiza
Despejado
Despejado
STATION : LEIB
METAR : 2017/11/21 23:00 LEIB 212300Z 00000KT CAVOK 11/10 Q1020 NOSIG
WIND : calm
VISIBILITY : greater than 7 miles (10 km)
CONDITIONS : Clear
TEMP : 52°F (11°C)
DEWPT : 50°F (10°C)
HUMIDITY : 94%
BAROMETER : 30.12 inHg (1020 hPa)
RAW-METAR : 2017/11/21 23:00 LEIB 212300Z 00000KT CAVOK 11/10 Q1020 NOSIG
 Publicidad